createdAt,value
2017-12-09T00:00:56.179Z,93.08
2017-12-09T00:01:56.152Z,92.99
2017-12-09T00:02:56.133Z,93.08
2017-12-09T00:03:56.120Z,93.27
2017-12-09T00:04:56.082Z,93.18
2017-12-09T00:05:56.064Z,92.71
2017-12-09T00:06:56.038Z,93.18
2017-12-09T00:07:56.011Z,92.80
2017-12-09T00:08:55.996Z,93.37
2017-12-09T00:09:55.965Z,92.71
2017-12-09T00:10:55.939Z,92.24
2017-12-09T00:11:55.920Z,92.43
2017-12-09T00:12:55.890Z,93.08
2017-12-09T00:13:55.869Z,92.71
2017-12-09T00:14:55.847Z,92.80
2017-12-09T00:15:55.833Z,92.80
2017-12-09T00:16:55.800Z,92.71
2017-12-09T00:17:55.779Z,93.08
2017-12-09T00:18:55.762Z,93.27
2017-12-09T00:19:55.748Z,92.71
2017-12-09T00:20:55.703Z,92.99
2017-12-09T00:21:55.680Z,92.90
2017-12-09T00:22:55.676Z,92.99
2017-12-09T00:23:55.639Z,92.90
2017-12-09T00:24:55.612Z,92.80
2017-12-09T00:25:55.586Z,92.24
2017-12-09T00:26:55.567Z,92.52
2017-12-09T00:27:55.541Z,92.24
2017-12-09T00:28:55.519Z,92.52
2017-12-09T00:29:55.489Z,92.61
2017-12-09T00:30:55.466Z,92.43
2017-12-09T00:31:55.440Z,92.61
2017-12-09T00:32:55.426Z,92.71
2017-12-09T00:33:55.392Z,92.52
2017-12-09T00:34:55.370Z,92.24
2017-12-09T00:35:55.350Z,92.33
2017-12-09T00:36:55.328Z,92.43
2017-12-09T00:37:55.300Z,92.90
2017-12-09T00:38:55.274Z,92.52
2017-12-09T00:39:55.252Z,92.52
2017-12-09T00:40:55.229Z,92.61
2017-12-09T00:41:55.207Z,92.43
2017-12-09T00:42:55.181Z,93.18
2017-12-09T00:43:55.173Z,92.71
2017-12-09T00:44:55.131Z,92.43
2017-12-09T00:45:55.111Z,92.85
2017-12-09T00:46:55.089Z,92.80
2017-12-09T00:47:55.063Z,92.80
2017-12-09T00:48:55.042Z,92.71
2017-12-09T00:49:55.016Z,92.33
2017-12-09T00:50:54.990Z,92.52
2017-12-09T00:51:54.969Z,92.71
2017-12-09T00:52:54.944Z,92.99
2017-12-09T00:53:54.917Z,93.46
2017-12-09T00:54:54.895Z,93.46
2017-12-09T00:55:54.870Z,92.71
2017-12-09T00:56:54.846Z,93.94
2017-12-09T00:57:54.820Z,93.65
2017-12-09T00:58:54.797Z,93.27
2017-12-09T00:59:54.852Z,93.46
2017-12-09T01:00:54.751Z,93.65
2017-12-09T01:01:54.729Z,93.27
2017-12-09T01:02:54.707Z,93.56
2017-12-09T01:03:54.753Z,93.27
2017-12-09T01:04:54.663Z,93.37
2017-12-09T01:05:54.629Z,93.75
2017-12-09T01:06:54.613Z,93.37
2017-12-09T01:07:54.684Z,93.37
2017-12-09T01:08:54.560Z,93.84
2017-12-09T01:09:54.638Z,92.61
2017-12-09T01:10:54.510Z,93.08
2017-12-09T01:11:54.550Z,92.90
2017-12-09T01:12:54.469Z,92.90
2017-12-09T01:13:54.595Z,92.71
2017-12-09T01:14:54.430Z,92.80
2017-12-09T01:15:54.524Z,92.71
2017-12-09T01:16:54.369Z,92.80
2017-12-09T01:17:54.493Z,93.56
2017-12-09T01:18:54.317Z,93.37
2017-12-09T01:19:54.399Z,93.46
2017-12-09T01:20:54.278Z,93.75
2017-12-09T01:21:54.306Z,93.56
2017-12-09T01:22:54.232Z,93.65
2017-12-09T01:23:54.198Z,93.84
2017-12-09T01:24:54.174Z,93.46
2017-12-09T01:25:54.154Z,93.18
2017-12-09T01:26:54.129Z,93.27
2017-12-09T01:27:54.120Z,92.61
2017-12-09T01:28:54.094Z,92.99
2017-12-09T01:29:54.057Z,93.46
2017-12-09T01:30:54.039Z,93.08
2017-12-09T01:31:54.021Z,93.37
2017-12-09T01:32:53.985Z,93.27
2017-12-09T01:33:53.963Z,93.75
2017-12-09T01:34:53.943Z,93.37
2017-12-09T01:35:53.920Z,93.27
2017-12-09T01:36:53.892Z,93.37
2017-12-09T01:37:53.869Z,93.75
2017-12-09T01:38:53.847Z,93.18
2017-12-09T01:39:53.819Z,93.75
2017-12-09T01:40:53.796Z,94.13
2017-12-09T01:41:53.770Z,94.23
2017-12-09T01:42:53.747Z,94.51
2017-12-09T01:43:53.730Z,94.60
2017-12-09T01:44:53.702Z,94.23
2017-12-09T01:45:53.674Z,93.94
2017-12-09T01:46:53.656Z,94.04
2017-12-09T01:47:53.636Z,93.37
2017-12-09T01:48:53.615Z,93.65
2017-12-09T01:49:53.586Z,92.80
2017-12-09T01:50:53.559Z,93.08
2017-12-09T01:51:53.534Z,92.71
2017-12-09T01:52:53.512Z,93.37
2017-12-09T01:53:53.490Z,92.90
2017-12-09T01:54:53.472Z,92.90
2017-12-09T01:55:53.491Z,92.90
2017-12-09T01:56:53.423Z,92.71
2017-12-09T01:57:53.396Z,93.27
2017-12-09T01:58:53.370Z,93.27
2017-12-09T01:59:53.344Z,93.08
2017-12-09T02:00:53.320Z,92.43
2017-12-09T02:01:53.297Z,92.52
2017-12-09T02:02:53.280Z,92.52
2017-12-09T02:03:53.249Z,93.27
2017-12-09T02:04:53.227Z,93.65
2017-12-09T02:05:53.204Z,93.27
2017-12-09T02:06:53.178Z,93.27
2017-12-09T02:07:53.162Z,93.75
2017-12-09T02:08:53.129Z,93.75
2017-12-09T02:09:53.109Z,93.56
2017-12-09T02:10:53.081Z,93.56
2017-12-09T02:11:53.058Z,93.42
2017-12-09T02:12:53.038Z,93.56
2017-12-09T02:13:53.010Z,93.37
2017-12-09T02:14:52.990Z,93.18
2017-12-09T02:15:52.970Z,93.46
2017-12-09T02:16:52.943Z,93.65
2017-12-09T02:17:52.917Z,93.08
2017-12-09T02:18:52.890Z,92.61
2017-12-09T02:19:52.871Z,92.90
2017-12-09T02:20:52.850Z,92.52
2017-12-09T02:21:52.818Z,92.90
2017-12-09T02:22:52.795Z,92.99
2017-12-09T02:23:52.774Z,93.08
2017-12-09T02:24:52.762Z,92.24
2017-12-09T02:25:52.723Z,92.71
2017-12-09T02:26:52.700Z,92.80
2017-12-09T02:27:52.682Z,92.99
2017-12-09T02:28:52.652Z,93.56
2017-12-09T02:29:52.631Z,93.46
2017-12-09T02:30:52.609Z,93.80
2017-12-09T02:31:52.582Z,92.76
2017-12-09T02:32:52.554Z,92.99
2017-12-09T02:33:52.531Z,92.99
2017-12-09T02:34:52.504Z,93.27
2017-12-09T02:35:52.478Z,93.46
2017-12-09T02:36:52.464Z,92.90
2017-12-09T02:37:52.430Z,93.65
2017-12-09T02:38:52.410Z,92.80
2017-12-09T02:39:52.391Z,93.18
2017-12-09T02:40:52.366Z,92.43
2017-12-09T02:41:52.344Z,93.08
2017-12-09T02:42:52.313Z,92.90
2017-12-09T02:43:52.289Z,92.90
2017-12-09T02:44:52.269Z,92.99
2017-12-09T02:45:52.240Z,92.80
2017-12-09T02:46:52.220Z,92.61
2017-12-09T02:47:52.192Z,92.52
2017-12-09T02:48:52.171Z,92.90
2017-12-09T02:49:52.143Z,92.24
2017-12-09T02:50:52.125Z,92.61
2017-12-09T02:51:52.091Z,92.71
2017-12-09T02:52:52.077Z,92.43
2017-12-09T02:53:52.044Z,92.52
2017-12-09T02:54:52.032Z,92.71
2017-12-09T02:55:52.000Z,92.33
2017-12-09T02:56:51.980Z,92.71
2017-12-09T02:57:51.949Z,92.66
2017-12-09T02:58:51.941Z,93.08
2017-12-09T02:59:51.909Z,92.52
2017-12-09T03:00:51.877Z,92.52
2017-12-09T03:01:51.861Z,92.29
2017-12-09T03:02:51.829Z,92.43
2017-12-09T03:03:51.810Z,92.24
2017-12-09T03:04:51.780Z,91.95
2017-12-09T03:05:51.755Z,91.29
2017-12-09T03:06:51.732Z,91.67
2017-12-09T03:07:51.709Z,91.86
2017-12-09T03:08:51.693Z,91.67
2017-12-09T03:09:51.661Z,91.48
2017-12-09T03:10:51.640Z,92.05
2017-12-09T03:11:51.619Z,91.57
2017-12-09T03:12:51.590Z,92.14
2017-12-09T03:13:51.566Z,91.76
2017-12-09T03:14:51.541Z,91.67
2017-12-09T03:15:51.517Z,91.48
2017-12-09T03:16:51.490Z,91.19
2017-12-09T03:17:51.467Z,91.48
2017-12-09T03:18:51.450Z,91.29
2017-12-09T03:19:51.419Z,92.05
2017-12-09T03:20:51.394Z,92.05
2017-12-09T03:21:51.370Z,92.24
2017-12-09T03:22:51.347Z,91.81
2017-12-09T03:23:51.330Z,92.14
2017-12-09T03:24:51.300Z,91.86
2017-12-09T03:25:51.277Z,92.33
2017-12-09T03:26:51.249Z,92.10
2017-12-09T03:27:51.232Z,92.29
2017-12-09T03:28:51.201Z,92.52
2017-12-09T03:29:51.180Z,92.43
2017-12-09T03:30:51.158Z,92.43
2017-12-09T03:31:51.129Z,92.61
2017-12-09T03:32:51.108Z,92.14
2017-12-09T03:33:51.082Z,92.33
2017-12-09T03:34:51.064Z,92.24
2017-12-09T03:35:51.030Z,92.24
2017-12-09T03:36:51.007Z,92.24
2017-12-09T03:37:50.983Z,92.33
2017-12-09T03:38:50.960Z,92.24
2017-12-09T03:39:50.939Z,92.33
2017-12-09T03:40:50.909Z,92.52
2017-12-09T03:41:50.890Z,92.80
2017-12-09T03:42:50.866Z,92.71
2017-12-09T03:43:50.840Z,92.05
2017-12-09T03:44:50.820Z,92.43
2017-12-09T03:45:50.795Z,92.14
2017-12-09T03:46:50.770Z,91.76
2017-12-09T03:47:50.740Z,91.86
2017-12-09T03:48:50.715Z,92.05
2017-12-09T03:49:50.695Z,91.76
2017-12-09T03:50:50.669Z,91.95
2017-12-09T03:51:50.648Z,92.05
2017-12-09T03:52:50.630Z,91.57
2017-12-09T03:53:50.596Z,91.95
2017-12-09T03:54:50.570Z,91.48
2017-12-09T03:55:50.547Z,92.05
2017-12-09T03:56:50.521Z,91.86
2017-12-09T03:57:50.500Z,92.14
2017-12-09T03:58:50.477Z,92.05
2017-12-09T03:59:50.452Z,92.52
2017-12-09T04:00:50.431Z,92.43
2017-12-09T04:01:50.405Z,92.52
2017-12-09T04:02:50.377Z,92.05
2017-12-09T04:03:50.352Z,92.33
2017-12-09T04:04:50.330Z,92.61
2017-12-09T04:05:50.306Z,92.33
2017-12-09T04:06:50.336Z,92.43
2017-12-09T04:07:50.259Z,92.61
2017-12-09T04:08:50.231Z,91.95
2017-12-09T04:09:50.210Z,91.86
2017-12-09T04:10:50.185Z,92.14
2017-12-09T04:11:50.157Z,92.05
2017-12-09T04:12:50.141Z,92.43
2017-12-09T04:13:50.107Z,92.52
2017-12-09T04:14:50.082Z,92.05
2017-12-09T04:15:50.060Z,91.57
2017-12-09T04:16:50.037Z,91.29
2017-12-09T04:17:50.010Z,91.57
2017-12-09T04:18:49.989Z,91.38
2017-12-09T04:19:49.959Z,91.48
2017-12-09T04:20:49.940Z,91.29
2017-12-09T04:21:49.917Z,91.57
2017-12-09T04:22:49.892Z,92.05
2017-12-09T04:23:49.871Z,91.48
2017-12-09T04:24:49.842Z,91.19
2017-12-09T04:25:49.871Z,91.38
2017-12-09T04:26:49.797Z,91.19
2017-12-09T04:27:49.770Z,91.48
2017-12-09T04:28:49.747Z,91.00
2017-12-09T04:29:49.721Z,90.63
2017-12-09T04:30:49.695Z,90.72
2017-12-09T04:31:49.671Z,90.91
2017-12-09T04:32:49.646Z,90.81
2017-12-09T04:33:49.633Z,90.81
2017-12-09T04:34:49.604Z,90.44
2017-12-09T04:35:49.576Z,90.44
2017-12-09T04:36:49.550Z,89.87
2017-12-09T04:37:49.528Z,89.96
2017-12-09T04:38:49.501Z,90.34
2017-12-09T04:39:49.478Z,90.53
2017-12-09T04:40:49.452Z,89.96
2017-12-09T04:41:49.427Z,88.92
2017-12-09T04:42:49.404Z,89.30
2017-12-09T04:43:49.381Z,89.39
2017-12-09T04:44:49.357Z,89.68
2017-12-09T04:45:49.345Z,89.20
2017-12-09T04:46:49.311Z,88.92
2017-12-09T04:47:49.291Z,88.82
2017-12-09T04:48:49.261Z,89.11
2017-12-09T04:49:49.232Z,89.68
2017-12-09T04:50:49.218Z,90.01
2017-12-09T04:51:49.190Z,89.58
2017-12-09T04:52:49.160Z,89.96
2017-12-09T04:53:49.150Z,90.25
2017-12-09T04:54:49.112Z,90.06
2017-12-09T04:55:49.087Z,89.68
2017-12-09T04:56:49.070Z,90.06
2017-12-09T04:57:49.040Z,90.06
2017-12-09T04:58:49.021Z,89.96
2017-12-09T04:59:48.988Z,90.15
2017-12-09T05:00:48.971Z,89.77
2017-12-09T05:01:48.938Z,89.77
2017-12-09T05:02:48.919Z,89.77
2017-12-09T05:03:48.890Z,90.15
2017-12-09T05:04:48.866Z,89.96
2017-12-09T05:05:48.839Z,89.87
2017-12-09T05:06:48.820Z,89.96
2017-12-09T05:07:48.800Z,90.01
2017-12-09T05:08:48.789Z,89.73
2017-12-09T05:09:48.744Z,89.54
2017-12-09T05:10:48.720Z,89.68
2017-12-09T05:11:48.705Z,89.77
2017-12-09T05:12:48.673Z,89.30
2017-12-09T05:13:48.644Z,89.58
2017-12-09T05:14:48.621Z,89.20
2017-12-09T05:15:48.602Z,89.01
2017-12-09T05:16:48.576Z,89.11
2017-12-09T05:17:48.551Z,89.20
2017-12-09T05:18:48.528Z,89.58
2017-12-09T05:19:48.501Z,89.39
2017-12-09T05:20:48.479Z,89.58
2017-12-09T05:21:48.449Z,89.49
2017-12-09T05:22:48.433Z,89.11
2017-12-09T05:23:48.404Z,89.20
2017-12-09T05:24:48.380Z,89.30
2017-12-09T05:25:48.360Z,89.20
2017-12-09T05:26:48.328Z,88.92
2017-12-09T05:27:48.310Z,89.01
2017-12-09T05:28:48.280Z,89.20
2017-12-09T05:29:48.256Z,89.30
2017-12-09T05:30:48.234Z,89.20
2017-12-09T05:31:48.210Z,89.49
2017-12-09T05:32:48.192Z,89.20
2017-12-09T05:33:48.160Z,89.01
2017-12-09T05:34:48.139Z,89.01
2017-12-09T05:35:48.110Z,89.20
2017-12-09T05:36:48.087Z,88.92
2017-12-09T05:37:48.063Z,89.11
2017-12-09T05:38:48.096Z,89.58
2017-12-09T05:39:48.013Z,89.73
2017-12-09T05:40:48.008Z,89.82
2017-12-09T05:41:47.972Z,89.82
2017-12-09T05:42:47.942Z,89.87
2017-12-09T05:43:47.916Z,90.06
2017-12-09T05:44:47.891Z,90.15
2017-12-09T05:45:47.871Z,90.25
2017-12-09T05:46:47.843Z,90.01
2017-12-09T05:47:47.823Z,90.53
2017-12-09T05:48:47.792Z,90.72
2017-12-09T05:49:47.774Z,90.58
2017-12-09T05:50:47.753Z,90.72
2017-12-09T05:51:47.722Z,90.44
2017-12-09T05:52:47.751Z,91.10
2017-12-09T05:53:47.673Z,91.57
2017-12-09T05:54:47.682Z,92.24
2017-12-09T05:55:47.620Z,92.24
2017-12-09T05:56:47.600Z,92.94
2017-12-09T05:57:47.581Z,93.70
2017-12-09T05:58:47.589Z,93.99
2017-12-09T05:59:47.527Z,94.56
2017-12-09T06:00:47.551Z,94.74
2017-12-09T06:01:47.480Z,95.03
2017-12-09T06:02:47.475Z,95.50
2017-12-09T06:03:47.431Z,95.21
2017-12-09T06:04:47.562Z,95.21
2017-12-09T06:05:47.381Z,95.40
2017-12-09T06:06:47.411Z,95.03
2017-12-09T06:07:47.327Z,95.59
2017-12-09T06:08:47.310Z,95.50
2017-12-09T06:09:47.280Z,95.21
2017-12-09T06:10:47.335Z,95.31
2017-12-09T06:11:47.231Z,95.59
2017-12-09T06:12:47.230Z,95.40
2017-12-09T06:13:47.180Z,95.59
2017-12-09T06:14:47.158Z,96.16
2017-12-09T06:15:47.131Z,95.59
2017-12-09T06:16:47.112Z,96.35
2017-12-09T06:17:47.083Z,96.16
2017-12-09T06:18:47.064Z,95.97
2017-12-09T06:19:47.041Z,96.26
2017-12-09T06:20:47.016Z,96.16
2017-12-09T06:21:46.991Z,96.16
2017-12-09T06:22:46.959Z,95.69
2017-12-09T06:23:46.987Z,95.31
2017-12-09T06:24:46.910Z,95.21
2017-12-09T06:25:46.890Z,95.78
2017-12-09T06:26:46.875Z,95.40
2017-12-09T06:27:46.840Z,96.07
2017-12-09T06:28:46.827Z,96.16
2017-12-09T06:29:46.792Z,97.39
2017-12-09T06:30:46.763Z,96.73
2017-12-09T06:31:46.740Z,97.39
2017-12-09T06:32:46.715Z,97.68
2017-12-09T06:33:46.690Z,97.39
2017-12-09T06:34:46.664Z,97.58
2017-12-09T06:35:46.640Z,98.06
2017-12-09T06:36:46.627Z,97.58
2017-12-09T06:37:46.593Z,97.39
2017-12-09T06:38:46.570Z,97.30
2017-12-09T06:39:46.542Z,97.30
2017-12-09T06:40:46.520Z,97.30
2017-12-09T06:41:46.494Z,97.49
2017-12-09T06:42:46.468Z,97.11
2017-12-09T06:43:46.449Z,96.73
2017-12-09T06:44:46.421Z,96.54
2017-12-09T06:45:46.395Z,96.45
2017-12-09T06:46:46.371Z,96.45
2017-12-09T06:47:46.347Z,97.39
2017-12-09T06:48:46.330Z,96.83
2017-12-09T06:49:46.296Z,97.49
2017-12-09T06:50:46.273Z,97.49
2017-12-09T06:51:46.250Z,97.39
2017-12-09T06:52:46.223Z,97.39
2017-12-09T06:53:46.201Z,97.39
2017-12-09T06:54:46.174Z,97.39
2017-12-09T06:55:46.151Z,97.39
2017-12-09T06:56:46.131Z,97.49
2017-12-09T06:57:46.099Z,97.68
2017-12-09T06:58:46.081Z,97.87
2017-12-09T06:59:46.054Z,97.58
2017-12-09T07:00:46.030Z,97.68
2017-12-09T07:01:46.008Z,97.58
2017-12-09T07:02:45.983Z,97.20
2017-12-09T07:03:45.954Z,97.02
2017-12-09T07:04:45.928Z,96.73
2017-12-09T07:05:45.912Z,96.64
2017-12-09T07:06:45.878Z,97.39
2017-12-09T07:07:45.910Z,97.20
2017-12-09T07:08:45.830Z,96.83
2017-12-09T07:09:45.854Z,96.92
2017-12-09T07:10:45.781Z,97.02
2017-12-09T07:11:45.757Z,97.11
2017-12-09T07:12:45.737Z,96.92
2017-12-09T07:13:45.709Z,96.16
2017-12-09T07:14:45.691Z,96.64
2017-12-09T07:15:45.661Z,96.35
2017-12-09T07:16:45.638Z,96.26
2017-12-09T07:17:45.617Z,96.83
2017-12-09T07:18:45.601Z,95.97
2017-12-09T07:19:45.567Z,95.59
2017-12-09T07:20:45.542Z,96.35
2017-12-09T07:21:45.515Z,95.97
2017-12-09T07:22:45.536Z,96.16
2017-12-09T07:23:45.516Z,96.54
2017-12-09T07:24:45.443Z,95.97
2017-12-09T07:25:45.422Z,96.45
2017-12-09T07:26:45.392Z,96.64
2017-12-09T07:27:45.370Z,96.35
2017-12-09T07:28:45.343Z,96.54
2017-12-09T07:29:45.316Z,96.64
2017-12-09T07:30:45.292Z,96.40
2017-12-09T07:31:45.274Z,95.07
2017-12-09T07:32:45.251Z,94.65
2017-12-09T07:33:45.219Z,95.17
2017-12-09T07:34:45.201Z,95.26
2017-12-09T07:35:45.175Z,94.65
2017-12-09T07:36:45.153Z,95.45
2017-12-09T07:37:45.128Z,94.98
2017-12-09T07:38:45.101Z,95.26
2017-12-09T07:39:45.076Z,95.17
2017-12-09T07:40:45.054Z,95.26
2017-12-09T07:41:45.027Z,94.60
2017-12-09T07:42:45.004Z,95.07
2017-12-09T07:43:44.980Z,94.98
2017-12-09T07:44:44.956Z,94.70
2017-12-09T07:45:44.932Z,94.42
2017-12-09T07:46:44.908Z,94.51
2017-12-09T07:47:44.884Z,94.65
2017-12-09T07:48:44.860Z,94.60
2017-12-09T07:49:44.833Z,95.17
2017-12-09T07:50:44.809Z,95.69
2017-12-09T07:51:44.790Z,95.07
2017-12-09T07:52:44.764Z,95.50
2017-12-09T07:53:44.734Z,95.40
2017-12-09T07:54:44.715Z,95.97
2017-12-09T07:55:44.736Z,95.69
2017-12-09T07:56:44.673Z,95.59
2017-12-09T07:57:44.639Z,96.16
2017-12-09T07:58:44.620Z,96.16
2017-12-09T07:59:44.594Z,96.35
2017-12-09T08:00:44.576Z,96.26
2017-12-09T08:01:44.544Z,95.88
2017-12-09T08:02:44.532Z,95.97
2017-12-09T08:03:44.496Z,95.59
2017-12-09T08:04:44.480Z,95.50
2017-12-09T08:05:44.447Z,95.21
2017-12-09T08:06:44.430Z,95.31
2017-12-09T08:07:44.401Z,95.40
2017-12-09T08:08:44.401Z,95.21
2017-12-09T08:09:44.352Z,95.31
2017-12-09T08:10:44.325Z,95.50
2017-12-09T08:11:44.308Z,95.03
2017-12-09T08:12:44.280Z,95.50
2017-12-09T08:13:44.261Z,95.59
2017-12-09T08:14:44.231Z,95.03
2017-12-09T08:15:44.209Z,95.88
2017-12-09T08:16:44.183Z,95.97
2017-12-09T08:17:44.161Z,96.35
2017-12-09T08:18:44.132Z,96.16
2017-12-09T08:19:44.110Z,96.16
2017-12-09T08:20:44.080Z,96.16
2017-12-09T08:21:44.065Z,95.97
2017-12-09T08:22:44.043Z,96.16
2017-12-09T08:23:44.010Z,96.07
2017-12-09T08:24:43.985Z,96.07
2017-12-09T08:25:43.959Z,96.35
2017-12-09T08:26:43.940Z,95.59
2017-12-09T08:27:43.910Z,95.59
2017-12-09T08:28:43.901Z,95.12
2017-12-09T08:29:43.859Z,95.59
2017-12-09T08:30:43.840Z,95.31
2017-12-09T08:31:43.817Z,95.50
2017-12-09T08:32:43.790Z,95.50
2017-12-09T08:33:43.768Z,95.31
2017-12-09T08:34:43.741Z,95.31
2017-12-09T08:35:43.717Z,95.97
2017-12-09T08:36:43.700Z,95.31
2017-12-09T08:37:43.671Z,95.31
2017-12-09T08:38:43.643Z,96.07
2017-12-09T08:39:43.667Z,95.59
2017-12-09T08:40:43.609Z,95.88
2017-12-09T08:41:43.571Z,95.78
2017-12-09T08:42:43.545Z,95.69
2017-12-09T08:43:43.528Z,96.26
2017-12-09T08:44:43.508Z,95.59
2017-12-09T08:45:43.474Z,95.59
2017-12-09T08:46:43.448Z,96.35
2017-12-09T08:47:43.430Z,96.35
2017-12-09T08:48:43.406Z,96.26
2017-12-09T08:49:43.387Z,96.35
2017-12-09T08:50:43.353Z,96.35
2017-12-09T08:51:43.334Z,96.64
2017-12-09T08:52:43.314Z,97.11
2017-12-09T08:53:43.281Z,97.58
2017-12-09T08:54:43.262Z,97.39
2017-12-09T08:55:43.232Z,97.77
2017-12-09T08:56:43.211Z,97.96
2017-12-09T08:57:43.194Z,97.68
2017-12-09T08:58:43.172Z,96.92
2017-12-09T08:59:43.140Z,97.11
2017-12-09T09:00:43.129Z,97.30
2017-12-09T09:01:43.095Z,96.92
2017-12-09T09:02:43.060Z,96.92
2017-12-09T09:03:43.040Z,96.35
2017-12-09T09:04:43.012Z,96.35
2017-12-09T09:05:42.991Z,96.16
2017-12-09T09:06:42.983Z,96.54
2017-12-09T09:07:42.941Z,96.16
2017-12-09T09:08:42.918Z,96.26
2017-12-09T09:09:42.890Z,95.93
2017-12-09T09:10:42.971Z,96.07
2017-12-09T09:11:42.841Z,96.35
2017-12-09T09:12:42.820Z,97.02
2017-12-09T09:13:42.804Z,96.73
2017-12-09T09:14:42.774Z,96.92
2017-12-09T09:15:42.807Z,97.49
2017-12-09T09:16:42.727Z,97.30
2017-12-09T09:17:42.698Z,97.30
2017-12-09T09:18:42.688Z,97.20
2017-12-09T09:19:42.652Z,97.68
2017-12-09T09:20:42.632Z,97.87
2017-12-09T09:21:42.601Z,97.96
2017-12-09T09:22:42.578Z,97.30
2017-12-09T09:23:42.553Z,96.97
2017-12-09T09:24:42.537Z,96.83
2017-12-09T09:25:42.506Z,96.83
2017-12-09T09:26:42.477Z,97.16
2017-12-09T09:27:42.460Z,97.11
2017-12-09T09:28:42.434Z,96.83
2017-12-09T09:29:42.408Z,96.83
2017-12-09T09:30:42.384Z,96.83
2017-12-09T09:31:42.359Z,97.39
2017-12-09T09:32:42.341Z,97.58
2017-12-09T09:33:42.310Z,97.44
2017-12-09T09:34:42.285Z,97.16
2017-12-09T09:35:42.273Z,97.39
2017-12-09T09:36:42.242Z,96.92
2017-12-09T09:37:42.220Z,97.58
2017-12-09T09:38:42.190Z,97.30
2017-12-09T09:39:42.170Z,97.20
2017-12-09T09:40:42.141Z,97.39
2017-12-09T09:41:42.120Z,97.73
2017-12-09T09:42:42.094Z,97.44
2017-12-09T09:43:42.082Z,97.25
2017-12-09T09:44:42.047Z,96.97
2017-12-09T09:45:42.031Z,97.30
2017-12-09T09:46:41.998Z,97.35
2017-12-09T09:47:41.976Z,97.44
2017-12-09T09:48:41.951Z,96.78
2017-12-09T09:49:41.932Z,96.31
2017-12-09T09:50:41.905Z,96.69
2017-12-09T09:51:41.878Z,96.50
2017-12-09T09:52:41.861Z,96.40
2017-12-09T09:53:41.826Z,96.40
2017-12-09T09:54:41.806Z,96.40
2017-12-09T09:55:41.781Z,96.40
2017-12-09T09:56:41.755Z,96.50
2017-12-09T09:57:41.739Z,96.97
2017-12-09T09:58:41.710Z,97.25
2017-12-09T09:59:41.684Z,96.97
2017-12-09T10:00:41.660Z,96.97
2017-12-09T10:01:41.641Z,96.02
2017-12-09T10:02:41.611Z,96.02
2017-12-09T10:03:41.591Z,96.12
2017-12-09T10:04:41.569Z,96.31
2017-12-09T10:05:41.540Z,96.02
2017-12-09T10:06:41.522Z,96.02
2017-12-09T10:07:41.493Z,96.69
2017-12-09T10:08:41.471Z,96.40
2017-12-09T10:09:41.452Z,96.40
2017-12-09T10:10:41.422Z,96.21
2017-12-09T10:11:41.400Z,96.50
2017-12-09T10:12:41.380Z,96.69
2017-12-09T10:13:41.351Z,96.12
2017-12-09T10:14:41.342Z,96.50
2017-12-09T10:15:41.303Z,96.69
2017-12-09T10:16:41.278Z,96.40
2017-12-09T10:17:41.254Z,96.40
2017-12-09T10:18:41.240Z,96.59
2017-12-09T10:19:41.209Z,96.12
2017-12-09T10:20:41.192Z,96.02
2017-12-09T10:21:41.165Z,96.21
2017-12-09T10:22:41.147Z,96.40
2017-12-09T10:23:41.113Z,96.21
2017-12-09T10:24:41.088Z,96.21
2017-12-09T10:25:41.071Z,97.35
2017-12-09T10:26:41.048Z,96.97
2017-12-09T10:27:41.015Z,96.97
2017-12-09T10:28:40.997Z,96.78
2017-12-09T10:29:41.049Z,96.40
2017-12-09T10:30:40.948Z,96.40
2017-12-09T10:31:40.971Z,95.64
2017-12-09T10:32:40.909Z,95.83
2017-12-09T10:33:40.880Z,95.83
2017-12-09T10:34:40.856Z,96.02
2017-12-09T10:35:40.840Z,96.21
2017-12-09T10:36:40.803Z,96.21
2017-12-09T10:37:40.833Z,96.40
2017-12-09T10:38:40.759Z,96.02
2017-12-09T10:39:40.733Z,96.31
2017-12-09T10:40:40.710Z,96.02
2017-12-09T10:41:40.701Z,95.64
2017-12-09T10:42:40.666Z,95.74
2017-12-09T10:43:40.685Z,96.02
2017-12-09T10:44:40.629Z,95.93
2017-12-09T10:45:40.595Z,95.36
2017-12-09T10:46:40.573Z,96.02
2017-12-09T10:47:40.547Z,96.21
2017-12-09T10:48:40.522Z,96.59
2017-12-09T10:49:40.499Z,97.16
2017-12-09T10:50:40.470Z,97.16
2017-12-09T10:51:40.446Z,97.16
2017-12-09T10:52:40.443Z,96.88
2017-12-09T10:53:40.406Z,96.69
2017-12-09T10:54:40.386Z,97.35
2017-12-09T10:55:40.358Z,96.97
2017-12-09T10:56:40.334Z,96.97
2017-12-09T10:57:40.308Z,97.35
2017-12-09T10:58:40.283Z,97.06
2017-12-09T10:59:40.262Z,96.88
2017-12-09T11:00:40.238Z,97.16
2017-12-09T11:01:40.228Z,96.88
2017-12-09T11:02:40.193Z,96.78
2017-12-09T11:03:40.169Z,96.97
2017-12-09T11:04:40.149Z,96.59
2017-12-09T11:05:40.118Z,96.31
2017-12-09T11:06:40.097Z,96.21
2017-12-09T11:07:40.070Z,97.25
2017-12-09T11:08:40.050Z,97.25
2017-12-09T11:09:40.024Z,97.25
2017-12-09T11:10:40.001Z,96.97
2017-12-09T11:11:39.978Z,96.88
2017-12-09T11:12:39.958Z,97.35
2017-12-09T11:13:39.929Z,96.88
2017-12-09T11:14:39.909Z,97.06
2017-12-09T11:15:39.881Z,96.88
2017-12-09T11:16:39.863Z,96.64
2017-12-09T11:17:39.838Z,96.69
2017-12-09T11:18:39.811Z,96.07
2017-12-09T11:19:39.801Z,96.36
2017-12-09T11:20:39.763Z,96.45
2017-12-09T11:21:39.739Z,95.93
2017-12-09T11:22:39.728Z,95.88
2017-12-09T11:23:39.703Z,96.07
2017-12-09T11:24:39.672Z,96.02
2017-12-09T11:25:39.665Z,95.50
2017-12-09T11:26:39.639Z,96.07
2017-12-09T11:27:39.613Z,95.31
2017-12-09T11:28:39.581Z,95.22
2017-12-09T11:29:39.567Z,96.07
2017-12-09T11:30:39.531Z,95.88
2017-12-09T11:31:39.512Z,95.98
2017-12-09T11:32:39.488Z,95.69
2017-12-09T11:33:39.464Z,95.31
2017-12-09T11:34:39.438Z,95.22
2017-12-09T11:35:39.421Z,95.41
2017-12-09T11:36:39.398Z,95.31
2017-12-09T11:37:39.368Z,95.12
2017-12-09T11:38:39.345Z,96.21
2017-12-09T11:39:39.320Z,96.26
2017-12-09T11:40:39.298Z,96.26
2017-12-09T11:41:39.281Z,96.45
2017-12-09T11:42:39.252Z,96.17
2017-12-09T11:43:39.230Z,95.69
2017-12-09T11:44:39.204Z,95.41
2017-12-09T11:45:39.182Z,95.12
2017-12-09T11:46:39.161Z,95.50
2017-12-09T11:47:39.142Z,95.31
2017-12-09T11:48:39.115Z,95.22
2017-12-09T11:49:39.099Z,95.31
2017-12-09T11:50:39.074Z,95.41
2017-12-09T11:51:39.042Z,95.31
2017-12-09T11:52:39.020Z,95.69
2017-12-09T11:53:39.000Z,95.41
2017-12-09T11:54:38.970Z,95.31
2017-12-09T11:55:38.950Z,95.98
2017-12-09T11:56:38.925Z,95.69
2017-12-09T11:57:38.911Z,95.41
2017-12-09T11:58:38.890Z,95.41
2017-12-09T11:59:38.862Z,95.22
2017-12-09T12:00:38.841Z,96.45
2017-12-09T12:01:38.812Z,96.45
2017-12-09T12:02:38.796Z,96.26
2017-12-09T12:03:38.767Z,96.26
2017-12-09T12:04:38.737Z,96.26
2017-12-09T12:05:38.712Z,96.73
2017-12-09T12:06:38.694Z,96.55
2017-12-09T12:07:38.672Z,96.45
2017-12-09T12:08:38.646Z,96.26
2017-12-09T12:09:38.621Z,96.45
2017-12-09T12:10:38.601Z,96.45
2017-12-09T12:11:38.578Z,96.45
2017-12-09T12:12:38.550Z,96.36
2017-12-09T12:13:38.548Z,96.45
2017-12-09T12:14:38.514Z,96.45
2017-12-09T12:15:38.479Z,96.45
2017-12-09T12:16:38.464Z,96.45
2017-12-09T12:17:38.455Z,96.73
2017-12-09T12:18:38.426Z,96.45
2017-12-09T12:19:38.400Z,96.64
2017-12-09T12:20:38.383Z,96.64
2017-12-09T12:21:38.343Z,96.36
2017-12-09T12:22:38.342Z,96.17
2017-12-09T12:23:38.301Z,96.17
2017-12-09T12:24:38.279Z,95.98
2017-12-09T12:25:38.263Z,96.45
2017-12-09T12:26:38.236Z,95.98
2017-12-09T12:27:38.205Z,96.17
2017-12-09T12:28:38.183Z,96.55
2017-12-09T12:29:38.164Z,96.64
2017-12-09T12:30:38.133Z,97.11
2017-12-09T12:31:38.115Z,96.83
2017-12-09T12:32:38.092Z,96.83
2017-12-09T12:33:38.107Z,96.36
2017-12-09T12:34:38.051Z,96.36
2017-12-09T12:35:38.011Z,96.26
2017-12-09T12:36:37.989Z,97.02
2017-12-09T12:37:37.986Z,97.21
2017-12-09T12:38:37.950Z,96.26
2017-12-09T12:39:37.991Z,96.55
2017-12-09T12:40:37.901Z,96.36
2017-12-09T12:41:37.882Z,96.64
2017-12-09T12:42:37.948Z,95.98
2017-12-09T12:43:37.839Z,96.07
2017-12-09T12:44:37.808Z,95.12
2017-12-09T12:45:37.783Z,95.50
2017-12-09T12:46:37.762Z,95.60
2017-12-09T12:47:37.733Z,95.31
2017-12-09T12:48:37.722Z,95.50
2017-12-09T12:49:37.690Z,95.41
2017-12-09T12:50:37.663Z,95.31
2017-12-09T12:51:37.641Z,96.07
2017-12-09T12:52:37.620Z,95.22